Main page
METAR-TAF:

METAR-TAF

Airports :

Tartu Airport

Tartu, Estonia

latitude: 58-18N, longitude: 026-44E, elevation: 59 m

Current weather observation

The report was made 28 minutes ago, at 19:50 UTC
Wind 2 kt from variable directions
Temperature 3°C
Humidity 100%
Pressure 1023 hPa
Visibility 10 km or more
patches of fog

METAR: EETU 201950Z AUTO VRB02KT 9999 BCFG FEW053/// 03/03 Q1023

Time: 23:18 (20:18 UTC)

Forecast

The report was made 18 minutes ago, at 20:00 UTC
Forecast valid from 19 at 21 UTC to 20 at 03 UTC
Wind 5 kt from the West/Southwest
Visibility 10 km or more
Scattered clouds at a height of 3000 ft
Temporary
from 19 at 21 UTC to 19 at 23 UTC
Visibility: 1200 m
Broken clouds at a height of 400 ft
Shallow fog, mist
Temporary
from 19 at 23 UTC to 20 at 03 UTC
Visibility: 0500 m
at a height of 200 ft
fog

TAF: EETU 192000Z 1921/2003 25005KT 9999 SCT030 TEMPO 1921/1923 1200 MIFG BR BKN004 TEMPO 1923/2003 0500 FG VV002

Weather observations and forecasts of more than 4000 airports (METAR and TAF reports).

The available stations are represented by yellow and red dots on the map.

Hover mouse over dot to see the name of the station.

Then click to see weather observations and forecasts.

To change the map : click on the green buttons with a black cross to zoom in, on the green button with a dash to zoom out, or on the green arrows for adjacent maps.


METAR-TAF: